CheckWX is a tool to help pilots better visualize weather data.  It is not intended as a substitute for an official pre-flight weather briefing.

00:09:21 UTC

CYYJ TAF
Victoria International Airport
Victoria, Canada
TAF CYYJ 182338Z 1900/1924 20006KT P6SM FEW025 SCT050 BKN090 TEMPO 1900/1908 P6SM -SHRA BKN030 FM190800 VRB03KT 6SM -SHRA BR SCT006 BKN012 OVC040 TEMPO 1908/1918 2SM -SHRA BR OVC006 BECMG 1910/1912 28010KT FM191800 01007KT P6SM -SHRA FEW015 BKN030 RMK NXT FCST BY 190600Z

Oct-19@
00:00 UTC

Oct-19 @ 00:00 UTC

Oct-19@
08:00 UTC

Oct-19 @ 08:00 UTC

TAF CYYJ 182338Z 1900/1924 20006KT P6SM FEW025 SCT050 BKN090
Wind
  • 200° at 6 KTS
Cloud Levels
  • Few at 2,500' AGL
  • Scattered at 5,000' AGL
  • Broken at 9,000' AGL

Oct-19@
00:00 UTC

Oct-19 @ 00:00 UTC

Oct-19@
08:00 UTC

Oct-19 @ 08:00 UTC

TEMPO 1900/1908 P6SM -SHRA BKN030

Temporary

Temporary Changes expected for less than half the time period

Conditions
Light Rain
Cloud Levels
  • Broken at 3,000' AGL

Oct-19@
08:00 UTC

Oct-19 @ 08:00 UTC

Oct-19@
10:00 UTC

Oct-19 @ 10:00 UTC

FM190800 VRB03KT 6SM -SHRA BR SCT006 BKN012 OVC040

From

From Standard forecast or significant change

Wind
  • Variable at 3 KTS
Conditions
Light Rain, Mist
Cloud Levels
  • Scattered at 600' AGL
  • Broken at 1,200' AGL
  • Overcast at 4,000' AGL

Oct-19@
08:00 UTC

Oct-19 @ 08:00 UTC

Oct-19@
18:00 UTC

Oct-19 @ 18:00 UTC

TEMPO 1908/1918 2SM -SHRA BR OVC006

Temporary

Temporary Changes expected for less than half the time period

Conditions
Light Rain, Mist
Cloud Levels
  • Overcast at 600' AGL

Oct-19@
10:00 UTC

Oct-19 @ 10:00 UTC

Oct-19@
18:00 UTC

Oct-19 @ 18:00 UTC

BECMG 1910/1912 28010KT

Becoming

Becoming Conditions expected by Sat, Oct 19, 2019 @ 12:00 UTC

Wind
  • 280° at 10 KTS
Conditions
Light Rain, Mist
Cloud Levels
  • Scattered at 600' AGL
  • Broken at 1,200' AGL
  • Overcast at 4,000' AGL

Oct-19@
18:00 UTC

Oct-19 @ 18:00 UTC

Oct-20@
00:00 UTC

Oct-20 @ 00:00 UTC

FM191800 01007KT P6SM -SHRA FEW015 BKN030 RMK NXT FCST BY 190600Z

From

From Standard forecast or significant change

Wind
  • 010° at 7 KTS
Conditions
Light Rain
Cloud Levels
  • Few at 1,500' AGL
  • Broken at 3,000' AGL